sensor_id;sensor_type;location;lat;lon;timestamp;pressure;altitude;pressure_sealevel;temperature;humidity
58967;BME280;44744;51.894;5.080;2023-12-20T00:00:52;101743.83;;;5.27;100.00
58967;BME280;44744;51.894;5.080;2023-12-20T00:01:52;101736.45;;;5.28;100.00
58967;BME280;44744;51.894;5.080;2023-12-20T00:02:53;101737.14;;;5.28;100.00
58967;BME280;44744;51.894;5.080;2023-12-20T00:03:53;101735.73;;;5.29;100.00
58967;BME280;44744;51.894;5.080;2023-12-20T00:04:53;101734.12;;;5.30;100.00
58967;BME280;44744;51.894;5.080;2023-12-20T00:05:53;101730.60;;;5.31;100.00
58967;BME280;44744;51.894;5.080;2023-12-20T00:06:53;101735.84;;;5.32;100.00
58967;BME280;44744;51.894;5.080;2023-12-20T00:07:53;101737.06;;;5.32;100.00
58967;BME280;44744;51.894;5.080;2023-12-20T00:08:54;101738.64;;;5.33;100.00
58967;BME280;44744;51.894;5.080;2023-12-20T00:09:54;101741.44;;;5.33;100.00
58967;BME280;44744;51.894;5.080;2023-12-20T00:10:54;101739.14;;;5.34;100.00
58967;BME280;44744;51.894;5.080;2023-12-20T00:11:54;101740.72;;;5.35;100.00
58967;BME280;44744;51.894;5.080;2023-12-20T00:12:54;101738.07;;;5.35;100.00
58967;BME280;44744;51.894;5.080;2023-12-20T00:13:54;101738.77;;;5.35;100.00
58967;BME280;44744;51.894;5.080;2023-12-20T00:14:54;101738.40;;;5.36;100.00
58967;BME280;44744;51.894;5.080;2023-12-20T00:15:55;101738.05;;;5.36;100.00
58967;BME280;44744;51.894;5.080;2023-12-20T00:16:55;101740.15;;;5.37;100.00
58967;BME280;44744;51.894;5.080;2023-12-20T00:17:55;101737.16;;;5.37;100.00
58967;BME280;44744;51.894;5.080;2023-12-20T00:18:55;101735.23;;;5.38;100.00
58967;BME280;44744;51.894;5.080;2023-12-20T00:19:55;101735.20;;;5.38;100.00
58967;BME280;44744;51.894;5.080;2023-12-20T00:20:55;101735.89;;;5.39;100.00
58967;BME280;44744;51.894;5.080;2023-12-20T00:21:55;101737.30;;;5.39;100.00
58967;BME280;44744;51.894;5.080;2023-12-20T00:22:56;101735.36;;;5.39;100.00
58967;BME280;44744;51.894;5.080;2023-12-20T00:23:57;101735.36;;;5.38;100.00
58967;BME280;44744;51.894;5.080;2023-12-20T00:24:57;101735.20;;;5.38;100.00
58967;BME280;44744;51.894;5.080;2023-12-20T00:25:57;101736.44;;;5.38;100.00
58967;BME280;44744;51.894;5.080;2023-12-20T00:26:57;101740.63;;;5.38;100.00
58967;BME280;44744;51.894;5.080;2023-12-20T00:27:57;101738.35;;;5.39;100.00
58967;BME280;44744;51.894;5.080;2023-12-20T00:28:58;101738.70;;;5.38;100.00
58967;BME280;44744;51.894;5.080;2023-12-20T00:29:58;101737.14;;;5.38;100.00
58967;BME280;44744;51.894;5.080;2023-12-20T00:30:58;101734.36;;;5.37;100.00
58967;BME280;44744;51.894;5.080;2023-12-20T00:31:58;101734.16;;;5.37;100.00
58967;BME280;44744;51.894;5.080;2023-12-20T00:32:58;101732.26;;;5.37;100.00
58967;BME280;44744;51.894;5.080;2023-12-20T00:33:58;101730.16;;;5.36;100.00
58967;BME280;44744;51.894;5.080;2023-12-20T00:35:01;101730.16;;;5.35;100.00
58967;BME280;44744;51.894;5.080;2023-12-20T00:36:02;101728.08;;;5.35;100.00
58967;BME280;44744;51.894;5.080;2023-12-20T00:37:02;101723.90;;;5.33;100.00
58967;BME280;44744;51.894;5.080;2023-12-20T00:38:02;101723.57;;;5.32;100.00
58967;BME280;44744;51.894;5.080;2023-12-20T00:39:02;101720.77;;;5.32;100.00
58967;BME280;44744;51.894;5.080;2023-12-20T00:40:03;101717.09;;;5.31;100.00
58967;BME280;44744;51.894;5.080;2023-12-20T00:41:03;101719.20;;;5.31;100.00
58967;BME280;44744;51.894;5.080;2023-12-20T00:42:03;101718.50;;;5.30;100.00
58967;BME280;44744;51.894;5.080;2023-12-20T00:43:03;101719.40;;;5.30;100.00
58967;BME280;44744;51.894;5.080;2023-12-20T00:44:04;101719.41;;;5.29;100.00
58967;BME280;44744;51.894;5.080;2023-12-20T00:45:04;101721.02;;;5.28;100.00
58967;BME280;44744;51.894;5.080;2023-12-20T00:46:04;101723.48;;;5.28;100.00
58967;BME280;44744;51.894;5.080;2023-12-20T00:47:04;101724.02;;;5.27;100.00
58967;BME280;44744;51.894;5.080;2023-12-20T00:48:05;101724.72;;;5.27;100.00
58967;BME280;44744;51.894;5.080;2023-12-20T00:49:05;101725.61;;;5.26;100.00
58967;BME280;44744;51.894;5.080;2023-12-20T00:50:06;101721.09;;;5.25;100.00
58967;BME280;44744;51.894;5.080;2023-12-20T00:51:06;101721.09;;;5.24;100.00
58967;BME280;44744;51.894;5.080;2023-12-20T00:52:06;101715.85;;;5.23;100.00
58967;BME280;44744;51.894;5.080;2023-12-20T00:53:06;101717.77;;;5.22;100.00
58967;BME280;44744;51.894;5.080;2023-12-20T00:54:06;101719.20;;;5.21;100.00
58967;BME280;44744;51.894;5.080;2023-12-20T00:55:07;101714.67;;;5.20;100.00
58967;BME280;44744;51.894;5.080;2023-12-20T00:56:07;101711.71;;;5.19;100.00
58967;BME280;44744;51.894;5.080;2023-12-20T00:57:07;101714.17;;;5.18;100.00
58967;BME280;44744;51.894;5.080;2023-12-20T00:58:07;101714.39;;;5.17;100.00
58967;BME280;44744;51.894;5.080;2023-12-20T00:59:07;101714.56;;;5.16;100.00
58967;BME280;44744;51.894;5.080;2023-12-20T01:00:08;101718.27;;;5.15;100.00
58967;BME280;44744;51.894;5.080;2023-12-20T01:01:08;101720.90;;;5.15;100.00
58967;BME280;44744;51.894;5.080;2023-12-20T01:02:08;101715.67;;;5.14;100.00
58967;BME280;44744;51.894;5.080;2023-12-20T01:03:08;101722.16;;;5.13;100.00
58967;BME280;44744;51.894;5.080;2023-12-20T01:04:08;101718.50;;;5.11;100.00
58967;BME280;44744;51.894;5.080;2023-12-20T01:05:08;101717.64;;;5.10;100.00
58967;BME280;44744;51.894;5.080;2023-12-20T01:06:09;101716.77;;;5.10;100.00
58967;BME280;44744;51.894;5.080;2023-12-20T01:07:09;101719.25;;;5.09;100.00
58967;BME280;44744;51.894;5.080;2023-12-20T01:08:09;101717.68;;;5.08;100.00
58967;BME280;44744;51.894;5.080;2023-12-20T01:09:09;101716.83;;;5.07;100.00
58967;BME280;44744;51.894;5.080;2023-12-20T01:10:09;101718.60;;;5.06;100.00
58967;BME280;44744;51.894;5.080;2023-12-20T01:11:09;101713.89;;;5.05;100.00
58967;BME280;44744;51.894;5.080;2023-12-20T01:12:09;101716.17;;;5.05;100.00
58967;BME280;44744;51.894;5.080;2023-12-20T01:13:10;101716.20;;;5.04;100.00
58967;BME280;44744;51.894;5.080;2023-12-20T01:14:10;101712.54;;;5.02;100.00
58967;BME280;44744;51.894;5.080;2023-12-20T01:15:10;101711.50;;;5.02;100.00
58967;BME280;44744;51.894;5.080;2023-12-20T01:16:10;101716.96;;;5.01;100.00
58967;BME280;44744;51.894;5.080;2023-12-20T01:17:11;101718.55;;;5.00;100.00
58967;BME280;44744;51.894;5.080;2023-12-20T01:18:11;101722.23;;;5.00;100.00
58967;BME280;44744;51.894;5.080;2023-12-20T01:19:12;101716.28;;;4.99;100.00
58967;BME280;44744;51.894;5.080;2023-12-20T01:20:12;101716.45;;;4.99;100.00
58967;BME280;44744;51.894;5.080;2023-12-20T01:21:12;101718.75;;;4.98;100.00
58967;BME280;44744;51.894;5.080;2023-12-20T01:22:12;101720.52;;;4.98;100.00
58967;BME280;44744;51.894;5.080;2023-12-20T01:23:12;101721.05;;;4.96;100.00
58967;BME280;44744;51.894;5.080;2023-12-20T01:24:13;101722.64;;;4.96;100.00
58967;BME280;44744;51.894;5.080;2023-12-20T01:25:13;101720.36;;;4.96;100.00
58967;BME280;44744;51.894;5.080;2023-12-20T01:26:14;101718.61;;;4.96;100.00
58967;BME280;44744;51.894;5.080;2023-12-20T01:27:14;101717.20;;;4.96;100.00
58967;BME280;44744;51.894;5.080;2023-12-20T01:28:14;101715.63;;;4.96;100.00
58967;BME280;44744;51.894;5.080;2023-12-20T01:29:15;101715.81;;;4.95;100.00
58967;BME280;44744;51.894;5.080;2023-12-20T01:30:15;101718.96;;;4.96;100.00
58967;BME280;44744;51.894;5.080;2023-12-20T01:31:15;101718.97;;;4.96;100.00
58967;BME280;44744;51.894;5.080;2023-12-20T01:32:15;101721.07;;;4.96;100.00
58967;BME280;44744;51.894;5.080;2023-12-20T01:33:15;101720.89;;;4.96;100.00
58967;BME280;44744;51.894;5.080;2023-12-20T01:34:15;101719.84;;;4.96;100.00
58967;BME280;44744;51.894;5.080;2023-12-20T01:35:15;101722.65;;;4.96;100.00
58967;BME280;44744;51.894;5.080;2023-12-20T01:36:16;101723.36;;;4.96;100.00
58967;BME280;44744;51.894;5.080;2023-12-20T01:37:16;101720.54;;;4.95;100.00
58967;BME280;44744;51.894;5.080;2023-12-20T01:38:16;101723.35;;;4.95;100.00
58967;BME280;44744;51.894;5.080;2023-12-20T01:39:17;101721.78;;;4.95;100.00
58967;BME280;44744;51.894;5.080;2023-12-20T01:40:17;101723.55;;;4.95;100.00
58967;BME280;44744;51.894;5.080;2023-12-20T01:41:17;101726.88;;;4.95;100.00
58967;BME280;44744;51.894;5.080;2023-12-20T01:42:18;101722.67;;;4.94;100.00
58967;BME280;44744;51.894;5.080;2023-12-20T01:43:18;101727.42;;;4.93;100.00
58967;BME280;44744;51.894;5.080;2023-12-20T01:44:18;101728.29;;;4.94;100.00
58967;BME280;44744;51.894;5.080;2023-12-20T01:45:18;101726.18;;;4.94;100.00
58967;BME280;44744;51.894;5.080;2023-12-20T01:46:19;101724.43;;;4.93;100.00
58967;BME280;44744;51.894;5.080;2023-12-20T01:47:19;101724.27;;;4.93;100.00
58967;BME280;44744;51.894;5.080;2023-12-20T01:48:20;101725.85;;;4.93;100.00
58967;BME280;44744;51.894;5.080;2023-12-20T01:49:21;101724.45;;;4.92;100.00
58967;BME280;44744;51.894;5.080;2023-12-20T01:50:21;101727.09;;;4.93;100.00
58967;BME280;44744;51.894;5.080;2023-12-20T01:51:21;101725.36;;;4.91;100.00
58967;BME280;44744;51.894;5.080;2023-12-20T01:52:22;101724.30;;;4.90;100.00
58967;BME280;44744;51.894;5.080;2023-12-20T01:53:23;101720.48;;;4.89;100.00
58967;BME280;44744;51.894;5.080;2023-12-20T01:54:24;101722.77;;;4.89;100.00
58967;BME280;44744;51.894;5.080;2023-12-20T01:55:24;101719.98;;;4.88;100.00
58967;BME280;44744;51.894;5.080;2023-12-20T01:56:25;101719.13;;;4.87;100.00
58967;BME280;44744;51.894;5.080;2023-12-20T01:57:27;101721.08;;;4.86;100.00
58967;BME280;44744;51.894;5.080;2023-12-20T01:58:27;101714.25;;;4.84;100.00
58967;BME280;44744;51.894;5.080;2023-12-20T01:59:27;101719.69;;;4.85;100.00
58967;BME280;44744;51.894;5.080;2023-12-20T02:00:28;101716.70;;;4.84;100.00
58967;BME280;44744;51.894;5.080;2023-12-20T02:01:30;101715.14;;;4.84;100.00
58967;BME280;44744;51.894;5.080;2023-12-20T02:02:30;101715.13;;;4.84;100.00
58967;BME280;44744;51.894;5.080;2023-12-20T02:03:30;101711.11;;;4.84;100.00
58967;BME280;44744;51.894;5.080;2023-12-20T02:04:30;101713.02;;;4.84;100.00
58967;BME280;44744;51.894;5.080;2023-12-20T02:05:31;101719.15;;;4.85;100.00
58967;BME280;44744;51.894;5.080;2023-12-20T02:06:32;101720.53;;;4.86;100.00
58967;BME280;44744;51.894;5.080;2023-12-20T02:07:33;101716.67;;;4.87;100.00
58967;BME280;44744;51.894;5.080;2023-12-20T02:08:34;101715.77;;;4.88;100.00
58967;BME280;44744;51.894;5.080;2023-12-20T02:09:34;101714.34;;;4.89;100.00
58967;BME280;44744;51.894;5.080;2023-12-20T02:10:34;101717.46;;;4.91;100.00
58967;BME280;44744;51.894;5.080;2023-12-20T02:11:35;101717.11;;;4.92;100.00
58967;BME280;44744;51.894;5.080;2023-12-20T02:12:35;101716.23;;;4.92;100.00
58967;BME280;44744;51.894;5.080;2023-12-20T02:13:36;101714.26;;;4.94;100.00
58967;BME280;44744;51.894;5.080;2023-12-20T02:14:36;101716.70;;;4.96;100.00
58967;BME280;44744;51.894;5.080;2023-12-20T02:15:36;101712.63;;;4.98;100.00
58967;BME280;44744;51.894;5.080;2023-12-20T02:16:36;101710.14;;;4.99;100.00
58967;BME280;44744;51.894;5.080;2023-12-20T02:17:37;101707.84;;;5.01;100.00
58967;BME280;44744;51.894;5.080;2023-12-20T02:18:38;101709.05;;;5.02;100.00
58967;BME280;44744;51.894;5.080;2023-12-20T02:19:39;101706.54;;;5.04;100.00
58967;BME280;44744;51.894;5.080;2023-12-20T02:20:39;101706.17;;;5.05;100.00
58967;BME280;44744;51.894;5.080;2023-12-20T02:21:39;101707.55;;;5.07;100.00
58967;BME280;44744;51.894;5.080;2023-12-20T02:22:39;101706.65;;;5.08;100.00
58967;BME280;44744;51.894;5.080;2023-12-20T02:23:40;101709.25;;;5.09;100.00
58967;BME280;44744;51.894;5.080;2023-12-20T02:24:40;101709.23;;;5.10;100.00
58967;BME280;44744;51.894;5.080;2023-12-20T02:25:40;101709.90;;;5.12;100.00
58967;BME280;44744;51.894;5.080;2023-12-20T02:26:40;101711.81;;;5.13;100.00
58967;BME280;44744;51.894;5.080;2023-12-20T02:27:40;101713.71;;;5.15;100.00
58967;BME280;44744;51.894;5.080;2023-12-20T02:28:41;101715.11;;;5.16;100.00
58967;BME280;44744;51.894;5.080;2023-12-20T02:29:41;101715.08;;;5.17;100.00
58967;BME280;44744;51.894;5.080;2023-12-20T02:30:41;101716.11;;;5.18;100.00
58967;BME280;44744;51.894;5.080;2023-12-20T02:31:41;101715.73;;;5.19;100.00
58967;BME280;44744;51.894;5.080;2023-12-20T02:32:41;101713.80;;;5.20;100.00
58967;BME280;44744;51.894;5.080;2023-12-20T02:33:42;101712.73;;;5.20;100.00
58967;BME280;44744;51.894;5.080;2023-12-20T02:34:42;101712.20;;;5.21;100.00
58967;BME280;44744;51.894;5.080;2023-12-20T02:35:42;101713.24;;;5.21;100.00
58967;BME280;44744;51.894;5.080;2023-12-20T02:36:42;101710.07;;;5.22;100.00
58967;BME280;44744;51.894;5.080;2023-12-20T02:37:42;101709.36;;;5.23;100.00
58967;BME280;44744;51.894;5.080;2023-12-20T02:38:43;101707.08;;;5.23;100.00
58967;BME280;44744;51.894;5.080;2023-12-20T02:39:43;101706.53;;;5.24;100.00
58967;BME280;44744;51.894;5.080;2023-12-20T02:40:43;101706.88;;;5.24;100.00
58967;BME280;44744;51.894;5.080;2023-12-20T02:41:43;101702.98;;;5.26;100.00
58967;BME280;44744;51.894;5.080;2023-12-20T02:42:43;101706.48;;;5.27;100.00
58967;BME280;44744;51.894;5.080;2023-12-20T02:43:43;101705.40;;;5.28;100.00
58967;BME280;44744;51.894;5.080;2023-12-20T02:44:43;101700.30;;;5.29;100.00
58967;BME280;44744;51.894;5.080;2023-12-20T02:45:44;101699.20;;;5.31;100.00
58967;BME280;44744;51.894;5.080;2023-12-20T02:46:44;101701.47;;;5.32;100.00
58967;BME280;44744;51.894;5.080;2023-12-20T02:47:44;101700.41;;;5.32;100.00
58967;BME280;44744;51.894;5.080;2023-12-20T02:48:44;101698.45;;;5.34;100.00
58967;BME280;44744;51.894;5.080;2023-12-20T02:49:44;101700.52;;;5.35;100.00
58967;BME280;44744;51.894;5.080;2023-12-20T02:50:45;101701.38;;;5.37;100.00
58967;BME280;44744;51.894;5.080;2023-12-20T02:51:46;101703.30;;;5.37;100.00
58967;BME280;44744;51.894;5.080;2023-12-20T02:52:46;101699.60;;;5.38;100.00
58967;BME280;44744;51.894;5.080;2023-12-20T02:53:46;101693.80;;;5.39;100.00
58967;BME280;44744;51.894;5.080;2023-12-20T02:54:46;101692.72;;;5.40;100.00
58967;BME280;44744;51.894;5.080;2023-12-20T02:55:47;101695.51;;;5.40;100.00
58967;BME280;44744;51.894;5.080;2023-12-20T02:56:47;101693.74;;;5.41;100.00
58967;BME280;44744;51.894;5.080;2023-12-20T02:57:47;101693.36;;;5.42;100.00
58967;BME280;44744;51.894;5.080;2023-12-20T02:58:47;101689.15;;;5.43;100.00
58967;BME280;44744;51.894;5.080;2023-12-20T02:59:48;101692.28;;;5.44;100.00
58967;BME280;44744;51.894;5.080;2023-12-20T03:00:48;101691.39;;;5.45;100.00
58967;BME280;44744;51.894;5.080;2023-12-20T03:01:48;101689.09;;;5.46;100.00
58967;BME280;44744;51.894;5.080;2023-12-20T03:02:48;101687.69;;;5.47;100.00
58967;BME280;44744;51.894;5.080;2023-12-20T03:03:48;101685.89;;;5.48;100.00
58967;BME280;44744;51.894;5.080;2023-12-20T03:04:48;101684.99;;;5.49;100.00
58967;BME280;44744;51.894;5.080;2023-12-20T03:05:48;101685.85;;;5.50;100.00
58967;BME280;44744;51.894;5.080;2023-12-20T03:06:49;101686.55;;;5.50;100.00
58967;BME280;44744;51.894;5.080;2023-12-20T03:07:49;101688.44;;;5.52;100.00
58967;BME280;44744;51.894;5.080;2023-12-20T03:08:49;101690.89;;;5.53;100.00
58967;BME280;44744;51.894;5.080;2023-12-20T03:09:49;101693.32;;;5.54;100.00
58967;BME280;44744;51.894;5.080;2023-12-20T03:10:49;101688.21;;;5.55;100.00
58967;BME280;44744;51.894;5.080;2023-12-20T03:11:50;101689.93;;;5.55;100.00
58967;BME280;44744;51.894;5.080;2023-12-20T03:12:50;101685.55;;;5.56;100.00
58967;BME280;44744;51.894;5.080;2023-12-20T03:13:50;101684.13;;;5.57;100.00
58967;BME280;44744;51.894;5.080;2023-12-20T03:14:50;101684.29;;;5.58;100.00
58967;BME280;44744;51.894;5.080;2023-12-20T03:15:50;101687.23;;;5.59;100.00
58967;BME280;44744;51.894;5.080;2023-12-20T03:16:50;101688.98;;;5.59;100.00
58967;BME280;44744;51.894;5.080;2023-12-20T03:17:51;101688.09;;;5.61;100.00
58967;BME280;44744;51.894;5.080;2023-12-20T03:18:51;101688.61;;;5.61;100.00
58967;BME280;44744;51.894;5.080;2023-12-20T03:19:51;101688.23;;;5.62;100.00
58967;BME280;44744;51.894;5.080;2023-12-20T03:20:51;101687.16;;;5.63;100.00
58967;BME280;44744;51.894;5.080;2023-12-20T03:21:51;101684.33;;;5.64;100.00
58967;BME280;44744;51.894;5.080;2023-12-20T03:22:51;101679.06;;;5.65;100.00
58967;BME280;44744;51.894;5.080;2023-12-20T03:23:52;101676.23;;;5.66;100.00
58967;BME280;44744;51.894;5.080;2023-12-20T03:24:52;101674.11;;;5.67;100.00
58967;BME280;44744;51.894;5.080;2023-12-20T03:25:52;101670.40;;;5.68;100.00
58967;BME280;44744;51.894;5.080;2023-12-20T03:26:52;101665.44;;;5.69;100.00
58967;BME280;44744;51.894;5.080;2023-12-20T03:27:52;101659.11;;;5.70;100.00
58967;BME280;44744;51.894;5.080;2023-12-20T03:28:53;101662.25;;;5.71;100.00
58967;BME280;44744;51.894;5.080;2023-12-20T03:29:53;101661.38;;;5.71;100.00
58967;BME280;44744;51.894;5.080;2023-12-20T03:30:53;101661.52;;;5.72;100.00
58967;BME280;44744;51.894;5.080;2023-12-20T03:31:53;101664.67;;;5.73;100.00
58967;BME280;44744;51.894;5.080;2023-12-20T03:32:53;101660.06;;;5.74;100.00
58967;BME280;44744;51.894;5.080;2023-12-20T03:33:54;101662.34;;;5.75;100.00
58967;BME280;44744;51.894;5.080;2023-12-20T03:34:54;101662.86;;;5.75;100.00
58967;BME280;44744;51.894;5.080;2023-12-20T03:35:54;101664.42;;;5.76;100.00
58967;BME280;44744;51.894;5.080;2023-12-20T03:36:54;101668.63;;;5.76;100.00
58967;BME280;44744;51.894;5.080;2023-12-20T03:37:54;101668.97;;;5.77;100.00
58967;BME280;44744;51.894;5.080;2023-12-20T03:38:54;101674.21;;;5.78;100.00
58967;BME280;44744;51.894;5.080;2023-12-20T03:39:55;101669.29;;;5.79;100.00
58967;BME280;44744;51.894;5.080;2023-12-20T03:40:55;101671.20;;;5.79;100.00
58967;BME280;44744;51.894;5.080;2023-12-20T03:41:55;101673.83;;;5.80;100.00
58967;BME280;44744;51.894;5.080;2023-12-20T03:42:55;101680.83;;;5.80;100.00
58967;BME280;44744;51.894;5.080;2023-12-20T03:43:55;101679.26;;;5.80;100.00
58967;BME280;44744;51.894;5.080;2023-12-20T03:44:55;101684.52;;;5.80;100.00
58967;BME280;44744;51.894;5.080;2023-12-20T03:45:55;101686.77;;;5.81;100.00
58967;BME280;44744;51.894;5.080;2023-12-20T03:46:56;101688.69;;;5.82;100.00
58967;BME280;44744;51.894;5.080;2023-12-20T03:47:56;101690.27;;;5.82;100.00
58967;BME280;44744;51.894;5.080;2023-12-20T03:48:56;101693.06;;;5.82;100.00
58967;BME280;44744;51.894;5.080;2023-12-20T03:49:56;101690.96;;;5.83;100.00
58967;BME280;44744;51.894;5.080;2023-12-20T03:50:56;101686.21;;;5.83;100.00
58967;BME280;44744;51.894;5.080;2023-12-20T03:51:57;101684.80;;;5.83;100.00
58967;BME280;44744;51.894;5.080;2023-12-20T03:52:57;101682.34;;;5.84;100.00
58967;BME280;44744;51.894;5.080;2023-12-20T03:53:57;101681.29;;;5.83;100.00
58967;BME280;44744;51.894;5.080;2023-12-20T03:54:57;101684.10;;;5.83;100.00
58967;BME280;44744;51.894;5.080;2023-12-20T03:55:57;101686.38;;;5.84;100.00
58967;BME280;44744;51.894;5.080;2023-12-20T03:56:58;101687.08;;;5.84;100.00
58967;BME280;44744;51.894;5.080;2023-12-20T03:57:58;101686.20;;;5.84;100.00
58967;BME280;44744;51.894;5.080;2023-12-20T03:58:58;101682.69;;;5.84;100.00
58967;BME280;44744;51.894;5.080;2023-12-20T03:59:58;101683.38;;;5.85;100.00
58967;BME280;44744;51.894;5.080;2023-12-20T04:00:58;101686.53;;;5.85;100.00
58967;BME280;44744;51.894;5.080;2023-12-20T04:01:59;101684.60;;;5.85;100.00
58967;BME280;44744;51.894;5.080;2023-12-20T04:03:02;101683.54;;;5.85;100.00
58967;BME280;44744;51.894;5.080;2023-12-20T04:04:02;101681.25;;;5.85;100.00
58967;BME280;44744;51.894;5.080;2023-12-20T04:05:02;101683.88;;;5.86;100.00
58967;BME280;44744;51.894;5.080;2023-12-20T04:06:02;101684.94;;;5.85;100.00
58967;BME280;44744;51.894;5.080;2023-12-20T04:07:03;101680.89;;;5.85;100.00
58967;BME280;44744;51.894;5.080;2023-12-20T04:08:03;101677.21;;;5.86;100.00
58967;BME280;44744;51.894;5.080;2023-12-20T04:09:03;101671.41;;;5.86;100.00
58967;BME280;44744;51.894;5.080;2023-12-20T04:10:03;101671.42;;;5.85;100.00
58967;BME280;44744;51.894;5.080;2023-12-20T04:11:04;101670.02;;;5.85;100.00
58967;BME280;44744;51.894;5.080;2023-12-20T04:12:04;101669.30;;;5.86;100.00
58967;BME280;44744;51.894;5.080;2023-12-20T04:13:04;101667.71;;;5.86;100.00
58967;BME280;44744;51.894;5.080;2023-12-20T04:14:04;101665.09;;;5.86;100.00
58967;BME280;44744;51.894;5.080;2023-12-20T04:15:05;101673.48;;;5.87;100.00
58967;BME280;44744;51.894;5.080;2023-12-20T04:16:05;101670.31;;;5.87;100.00
58967;BME280;44744;51.894;5.080;2023-12-20T04:17:05;101674.35;;;5.88;100.00
58967;BME280;44744;51.894;5.080;2023-12-20T04:18:05;101679.79;;;5.88;100.00
58967;BME280;44744;51.894;5.080;2023-12-20T04:19:05;101674.70;;;5.88;100.00
58967;BME280;44744;51.894;5.080;2023-12-20T04:20:06;101671.70;;;5.88;100.00
58967;BME280;44744;51.894;5.080;2023-12-20T04:21:06;101671.00;;;5.88;100.00
58967;BME280;44744;51.894;5.080;2023-12-20T04:22:06;101667.66;;;5.89;100.00
58967;BME280;44744;51.894;5.080;2023-12-20T04:23:06;101666.80;;;5.88;100.00
58967;BME280;44744;51.894;5.080;2023-12-20T04:24:07;101668.90;;;5.88;100.00
58967;BME280;44744;51.894;5.080;2023-12-20T04:25:07;101666.78;;;5.88;100.00
58967;BME280;44744;51.894;5.080;2023-12-20T04:26:07;101668.90;;;5.88;100.00
58967;BME280;44744;51.894;5.080;2023-12-20T04:27:07;101666.27;;;5.88;100.00
58967;BME280;44744;51.894;5.080;2023-12-20T04:28:08;101672.96;;;5.88;100.00
58967;BME280;44744;51.894;5.080;2023-12-20T04:29:08;101670.86;;;5.87;100.00
58967;BME280;44744;51.894;5.080;2023-12-20T04:30:08;101673.87;;;5.86;100.00
58967;BME280;44744;51.894;5.080;2023-12-20T04:31:08;101671.61;;;5.85;100.00
58967;BME280;44744;51.894;5.080;2023-12-20T04:32:09;101668.30;;;5.83;100.00
58967;BME280;44744;51.894;5.080;2023-12-20T04:33:09;101673.23;;;5.83;100.00
58967;BME280;44744;51.894;5.080;2023-12-20T04:34:09;101670.62;;;5.81;100.00
58967;BME280;44744;51.894;5.080;2023-12-20T04:35:09;101671.00;;;5.80;100.00
58967;BME280;44744;51.894;5.080;2023-12-20T04:36:09;101672.74;;;5.81;99.99
58967;BME280;44744;51.894;5.080;2023-12-20T04:37:09;101669.61;;;5.79;99.96
58967;BME280;44744;51.894;5.080;2023-12-20T04:38:09;101669.95;;;5.80;99.98
58967;BME280;44744;51.894;5.080;2023-12-20T04:39:11;101673.83;;;5.79;100.00
58967;BME280;44744;51.894;5.080;2023-12-20T04:40:11;101675.06;;;5.79;99.97
58967;BME280;44744;51.894;5.080;2023-12-20T04:41:11;101674.36;;;5.78;99.97
58967;BME280;44744;51.894;5.080;2023-12-20T04:42:12;101675.60;;;5.78;99.98
58967;BME280;44744;51.894;5.080;2023-12-20T04:43:12;101672.45;;;5.78;99.96
58967;BME280;44744;51.894;5.080;2023-12-20T04:44:12;101675.42;;;5.78;99.96
58967;BME280;44744;51.894;5.080;2023-12-20T04:45:12;101676.85;;;5.77;99.94
58967;BME280;44744;51.894;5.080;2023-12-20T04:46:12;101677.89;;;5.78;99.79
58967;BME280;44744;51.894;5.080;2023-12-20T04:47:12;101676.31;;;5.78;99.83
58967;BME280;44744;51.894;5.080;2023-12-20T04:48:12;101665.08;;;5.77;99.68
58967;BME280;44744;51.894;5.080;2023-12-20T04:49:13;101662.80;;;5.78;99.72
58967;BME280;44744;51.894;5.080;2023-12-20T04:50:13;101660.89;;;5.77;99.73
58967;BME280;44744;51.894;5.080;2023-12-20T04:51:13;101661.58;;;5.77;99.83
58967;BME280;44744;51.894;5.080;2023-12-20T04:52:13;101660.20;;;5.77;99.88
58967;BME280;44744;51.894;5.080;2023-12-20T04:53:14;101657.92;;;5.76;99.65
58967;BME280;44744;51.894;5.080;2023-12-20T04:54:14;101660.21;;;5.76;99.62
58967;BME280;44744;51.894;5.080;2023-12-20T04:55:14;101658.11;;;5.76;99.50
58967;BME280;44744;51.894;5.080;2023-12-20T04:56:14;101656.70;;;5.76;99.45
58967;BME280;44744;51.894;5.080;2023-12-20T04:57:14;101656.00;;;5.75;99.30
58967;BME280;44744;51.894;5.080;2023-12-20T04:58:16;101659.69;;;5.75;99.10
58967;BME280;44744;51.894;5.080;2023-12-20T04:59:16;101655.48;;;5.75;98.85
58967;BME280;44744;51.894;5.080;2023-12-20T05:00:16;101650.22;;;5.75;98.86
58967;BME280;44744;51.894;5.080;2023-12-20T05:01:16;101654.62;;;5.75;99.11
58967;BME280;44744;51.894;5.080;2023-12-20T05:02:16;101652.52;;;5.74;98.91
58967;BME280;44744;51.894;5.080;2023-12-20T05:03:17;101650.77;;;5.73;99.01
58967;BME280;44744;51.894;5.080;2023-12-20T05:04:17;101650.63;;;5.73;98.96
58967;BME280;44744;51.894;5.080;2023-12-20T05:05:17;101645.73;;;5.72;99.16
58967;BME280;44744;51.894;5.080;2023-12-20T05:06:17;101646.80;;;5.71;98.91
58967;BME280;44744;51.894;5.080;2023-12-20T05:07:17;101645.77;;;5.71;98.97
58967;BME280;44744;51.894;5.080;2023-12-20T05:08:17;101641.38;;;5.70;98.70
58967;BME280;44744;51.894;5.080;2023-12-20T05:09:18;101639.46;;;5.69;98.58
58967;BME280;44744;51.894;5.080;2023-12-20T05:10:18;101641.77;;;5.69;98.79
58967;BME280;44744;51.894;5.080;2023-12-20T05:11:18;101639.52;;;5.67;98.74
58967;BME280;44744;51.894;5.080;2023-12-20T05:12:18;101641.29;;;5.66;98.86
58967;BME280;44744;51.894;5.080;2023-12-20T05:13:18;101637.11;;;5.65;98.72
58967;BME280;44744;51.894;5.080;2023-12-20T05:14:18;101640.46;;;5.64;98.77
58967;BME280;44744;51.894;5.080;2023-12-20T05:15:18;101645.38;;;5.63;98.37